Time;durP1;ratioP1;P1;durP2;ratioP2;P2;SDS_P1;SDS_P2;PMS_P1;PMS_P2;Temp;Humidity;BMP_temperature;BMP_pressure;BME280_temperature;BME280_humidity;BME280_pressure;Samples;Min_cycle;Max_cycle;Signal;HPM_P1;HPM_P2
2022/12/10 03:30:30;;;;;;;44.20;22.13;;;;;;;1.78;100.00;99409.64;1635276;84;21001;-67
2022/12/10 03:32:58;;;;;;;43.70;20.27;;;;;;;1.71;100.00;99397.63;1618881;87;21060;-65
2022/12/10 03:35:24;;;;;;;34.60;19.62;;;;;;;2.65;100.00;99385.42;1623593;87;21104;-66
2022/12/10 03:37:51;;;;;;;36.08;18.62;;;;;;;3.05;100.00;99388.61;1613015;87;21134;-66
2022/12/10 03:40:21;;;;;;;31.15;16.62;;;;;;;3.08;100.00;99377.28;1625836;87;21146;-67
2022/12/10 03:42:50;;;;;;;38.60;17.80;;;;;;;3.19;100.00;99374.49;1630003;87;22127;-66
2022/12/10 03:45:16;;;;;;;46.00;15.38;;;;;;;2.42;100.00;99365.45;1626158;87;21182;-67
2022/12/10 03:47:43;;;;;;;30.57;14.28;;;;;;;2.82;100.00;99377.77;1647223;86;21113;-65
2022/12/10 03:50:10;;;;;;;29.12;15.20;;;;;;;2.90;100.00;99365.05;1650714;86;21042;-67
2022/12/10 03:52:36;;;;;;;30.88;15.53;;;;;;;3.12;100.00;99374.59;1652421;86;21796;-65
2022/12/10 03:55:06;;;;;;;27.75;15.15;;;;;;;2.92;100.00;99377.59;1645546;86;21206;-66
2022/12/10 03:57:34;;;;;;;33.40;17.60;;;;;;;2.97;100.00;99372.30;1635308;86;21645;-65
2022/12/10 04:00:01;;;;;;;32.15;17.37;;;;;;;2.87;100.00;99350.78;1625776;86;21165;-65
2022/12/10 04:02:27;;;;;;;36.20;16.40;;;;;;;3.10;100.00;99362.06;1630226;86;21132;-65
2022/12/10 04:04:53;;;;;;;31.55;16.52;;;;;;;3.33;100.00;99358.16;1623799;86;21635;-65
2022/12/10 04:07:20;;;;;;;34.13;15.90;;;;;;;3.43;100.00;99349.72;1614858;87;21148;-66
2022/12/10 04:09:47;;;;;;;29.32;16.02;;;;;;;3.51;100.00;99351.28;1614612;87;21294;-66
2022/12/10 04:12:14;;;;;;;29.70;15.23;;;;;;;3.46;100.00;99356.19;1629132;87;21658;-65
2022/12/10 04:17:25;;;;;;;37.45;14.85;;;;;;;3.39;100.00;99343.73;1619036;86;22101;-65
2022/12/10 04:19:52;;;;;;;28.85;14.23;;;;;;;3.32;100.00;99342.14;1617358;87;21219;-66
2022/12/10 04:27:49;;;;;;;30.88;14.18;;;;;;;3.21;100.00;99326.73;1621140;87;21154;-65
2022/12/10 04:30:16;;;;;;;30.43;14.25;;;;;;;3.08;100.00;99322.23;1624160;87;21098;-65
2022/12/10 04:32:43;;;;;;;33.65;15.15;;;;;;;3.24;100.00;99326.66;1621948;87;21174;-64
2022/12/10 04:35:10;;;;;;;26.87;15.30;;;;;;;3.28;100.00;99335.28;1621412;86;21625;-66
2022/12/10 04:37:36;;;;;;;35.30;16.67;;;;;;;3.08;100.00;99332.64;1635147;85;22354;-67
2022/12/10 04:40:06;;;;;;;29.72;16.20;;;;;;;3.13;100.00;99319.09;1635887;85;21067;-66
2022/12/10 04:42:33;;;;;;;38.23;17.27;;;;;;;2.88;100.00;99317.86;1627100;86;21081;-66
2022/12/10 04:45:00;;;;;;;36.15;17.17;;;;;;;3.01;100.00;99311.96;1638399;86;21119;-66
2022/12/10 04:47:26;;;;;;;35.58;17.90;;;;;;;2.81;100.00;99303.26;1637989;86;21069;-65
2022/12/10 04:49:53;;;;;;;35.90;17.57;;;;;;;2.94;100.00;99289.99;1631279;86;21709;-65
2022/12/10 04:52:19;;;;;;;43.63;18.65;;;;;;;2.86;100.00;99297.06;1655959;85;21164;-65
2022/12/10 04:54:45;;;;;;;42.55;17.82;;;;;;;2.98;100.00;99295.97;1660151;85;21114;-67
2022/12/10 04:57:13;;;;;;;33.48;16.73;;;;;;;3.00;100.00;99296.80;1654743;84;21613;-66
2022/12/10 04:59:40;;;;;;;46.65;19.48;;;;;;;3.15;100.00;99296.51;1653619;84;21118;-65
2022/12/10 05:02:07;;;;;;;32.28;16.62;;;;;;;2.91;100.00;99287.43;1652662;85;21685;-64
2022/12/10 05:04:34;;;;;;;34.23;17.80;;;;;;;3.29;100.00;99286.23;1657660;84;21168;-65
2022/12/10 05:07:00;;;;;;;36.13;18.23;;;;;;;3.34;100.00;99274.01;1653683;85;21122;-65
2022/12/10 05:09:27;;;;;;;38.00;17.32;;;;;;;3.40;100.00;99266.05;1654333;84;21158;-65
2022/12/10 05:11:53;;;;;;;41.73;18.80;;;;;;;3.22;100.00;99267.32;1651400;85;21173;-65
2022/12/10 05:14:20;;;;;;;39.83;18.00;;;;;;;3.01;100.00;99273.79;1652444;85;21071;-65
2022/12/10 05:16:51;;;;;;;38.20;18.80;;;;;;;2.83;100.00;99275.03;1657668;85;21070;-65
2022/12/10 05:19:19;;;;;;;38.60;19.10;;;;;;;3.15;100.00;99263.98;1648848;84;21262;-65
2022/12/10 05:24:33;;;;;;;35.43;18.85;;;;;;;3.30;100.00;99245.87;1656733;84;21094;-65
2022/12/10 05:27:00;;;;;;;44.58;19.27;;;;;;;3.14;100.00;99258.35;1651325;85;21214;-66
2022/12/10 05:29:26;;;;;;;36.68;19.98;;;;;;;3.14;100.00;99246.64;1627395;87;21170;-66
2022/12/10 05:31:53;;;;;;;53.63;20.35;;;;;;;3.30;100.00;99246.33;1658002;84;21132;-65
2022/12/10 05:34:19;;;;;;;31.07;16.93;;;;;;;3.44;100.00;99247.33;1652632;85;21133;-66
2022/12/10 05:36:46;;;;;;;35.00;18.52;;;;;;;3.22;100.00;99244.33;1653790;84;21223;-66
2022/12/10 05:39:13;;;;;;;34.85;17.42;;;;;;;3.21;100.00;99236.12;1642059;86;21609;-66
2022/12/10 05:41:40;;;;;;;41.83;16.25;;;;;;;3.19;100.00;99239.20;1637650;86;21200;-66
2022/12/10 05:44:07;;;;;;;38.23;19.15;;;;;;;3.32;100.00;99236.30;1638934;86;21119;-65
2022/12/10 05:46:34;;;;;;;51.08;20.97;;;;;;;3.21;100.00;99234.81;1631916;86;21625;-65
2022/12/10 05:49:02;;;;;;;39.03;19.37;;;;;;;3.27;100.00;99241.20;1644683;85;21130;-65
2022/12/10 05:51:31;;;;;;;40.88;19.60;;;;;;;3.23;100.00;99244.75;1653334;86;21054;-66
2022/12/10 05:53:59;;;;;;;38.42;18.12;;;;;;;3.29;100.00;99245.90;1633413;86;22376;-67
2022/12/10 05:56:25;;;;;;;29.27;15.72;;;;;;;3.27;100.00;99251.16;1646434;86;21082;-66
2022/12/10 05:58:56;;;;;;;29.77;15.60;;;;;;;3.56;100.00;99243.14;1632043;86;21297;-68
2022/12/10 10:19:35;;;;;;;49.97;25.00;;;;;;;0.62;100.00;98953.97;1807400;77;22734;-93
2022/12/10 10:22:04;;;;;;;45.10;24.23;;;;;;;1.06;100.00;98951.52;1748008;80;21040;-92
2022/12/10 10:24:41;;;;;;;40.63;22.48;;;;;;;1.60;100.00;98945.34;1745579;79;21464;-92
2022/12/10 10:27:28;;;;;;;35.85;20.55;;;;;;;1.97;100.00;98931.61;1787101;77;20980;-93
2022/12/10 10:30:09;;;;;;;39.78;20.82;;;;;;;2.19;100.00;98932.00;1760631;80;20867;-93
2022/12/10 10:32:45;;;;;;;42.62;21.90;;;;;;;2.31;100.00;98929.97;1758130;77;20969;-94
2022/12/10 10:35:32;;;;;;;33.05;18.48;;;;;;;2.31;100.00;98927.37;1779562;80;21026;-92
2022/12/10 10:38:08;;;;;;;32.80;19.37;;;;;;;2.57;100.00;98927.20;1772815;78;21133;-94
2022/12/10 10:40:48;;;;;;;33.92;20.68;;;;;;;2.74;100.00;98935.92;1704318;83;20957;-93
2022/12/10 10:43:44;;;;;;;32.88;18.37;;;;;;;3.06;100.00;98939.44;1746890;80;21025;-66
2022/12/10 10:46:22;;;;;;;28.30;16.52;;;;;;;3.09;100.00;98940.23;1748256;80;28204;-66
2022/12/10 10:48:50;;;;;;;30.15;17.95;;;;;;;3.30;100.00;98935.36;1733920;80;21036;-67
2022/12/10 10:51:23;;;;;;;30.27;17.80;;;;;;;3.50;100.00;98933.08;1747542;81;21139;-67
2022/12/10 10:53:55;;;;;;;30.60;17.07;;;;;;;3.55;100.00;98932.50;1745554;81;21100;-66
2022/12/10 10:56:31;;;;;;;28.57;15.45;;;;;;;3.32;100.00;98933.58;1749302;81;21014;-65
2022/12/10 10:59:17;;;;;;;27.70;15.78;;;;;;;3.40;100.00;98939.41;1747164;80;21338;-66
2022/12/10 11:02:04;;;;;;;25.77;15.28;;;;;;;3.49;100.00;98937.86;1751987;81;20994;-65
2022/12/10 11:04:40;;;;;;;31.62;17.17;;;;;;;3.62;100.00;98933.19;1706174;81;21126;-66
2022/12/10 11:07:18;;;;;;;27.82;17.40;;;;;;;3.37;100.00;98929.09;1751165;81;21081;-66
2022/12/10 11:09:45;;;;;;;32.65;16.70;;;;;;;3.47;100.00;98934.44;1750989;81;21033;-66
2022/12/10 11:12:35;;;;;;;28.45;16.70;;;;;;;3.67;100.00;98934.36;1779122;80;21111;-66
2022/12/10 11:15:24;;;;;;;28.15;16.35;;;;;;;3.76;100.00;98930.19;1764284;80;21053;-66
2022/12/10 11:17:54;;;;;;;26.73;16.52;;;;;;;3.67;100.00;98929.15;1800632;77;21061;-66
2022/12/10 11:20:46;;;;;;;23.87;15.45;;;;;;;3.73;100.00;98921.17;1802857;77;20989;-66
2022/12/10 11:23:15;;;;;;;31.68;18.05;;;;;;;3.65;100.00;98917.47;1648746;86;21117;-66
2022/12/10 11:26:13;;;;;;;30.20;17.82;;;;;;;3.57;100.00;98911.19;1638112;86;21077;-66
2022/12/10 11:28:49;;;;;;;28.47;18.20;;;;;;;3.31;100.00;98921.02;1636339;86;21614;-67
2022/12/10 11:31:39;;;;;;;33.67;19.87;;;;;;;3.46;100.00;98918.44;1635627;86;21236;-66
2022/12/10 11:34:36;;;;;;;32.03;20.52;;;;;;;3.46;100.00;98918.89;1633337;86;21588;-65
2022/12/10 11:37:31;;;;;;;35.03;20.85;;;;;;;3.58;100.00;98912.88;1634177;86;21599;-66
2022/12/10 11:40:16;;;;;;;35.40;20.55;;;;;;;3.43;100.00;98914.62;1634398;86;21045;-66
2022/12/10 11:43:16;;;;;;;25.97;16.80;;;;;;;3.90;100.00;98911.11;1636878;87;21073;-66
2022/12/10 11:45:54;;;;;;;30.35;17.87;;;;;;;4.10;100.00;98908.38;1633221;86;21955;-66
2022/12/10 11:48:38;;;;;;;44.63;24.05;;;;;;;3.91;100.00;98909.34;1631580;86;21049;-66
2022/12/10 11:51:11;;;;;;;40.38;22.15;;;;;;;3.90;100.00;98903.29;1635082;86;21073;-66
2022/12/10 11:54:08;;;;;;;45.50;25.10;;;;;;;3.90;100.00;98898.08;1630296;86;21549;-66
2022/12/10 11:56:46;;;;;;;36.48;21.45;;;;;;;3.98;100.00;98893.52;1629652;87;21645;-66
2022/12/10 11:59:36;;;;;;;39.40;22.93;;;;;;;3.58;100.00;98889.45;1599315;88;21093;-66
2022/12/10 12:02:17;;;;;;;31.70;18.82;;;;;;;3.79;100.00;98883.22;1635293;86;21101;-65
2022/12/10 12:05:15;;;;;;;32.90;18.23;;;;;;;3.88;100.00;98880.34;1633884;86;21081;-66
2022/12/10 12:08:09;;;;;;;25.57;14.93;;;;;;;4.06;100.00;98885.91;1631791;86;21053;-65
2022/12/10 12:11:05;;;;;;;27.25;17.27;;;;;;;4.19;100.00;98883.34;1630134;86;21112;-64
2022/12/10 12:13:37;;;;;;;28.32;18.23;;;;;;;4.19;100.00;98888.09;1632098;86;21241;-66
2022/12/10 12:16:12;;;;;;;26.00;16.90;;;;;;;4.25;100.00;98893.55;1631666;86;21785;-66
2022/12/10 12:18:59;;;;;;;24.02;14.80;;;;;;;4.21;100.00;98893.27;1635880;85;21203;-66
2022/12/10 12:21:27;;;;;;;26.00;16.95;;;;;;;4.14;100.00;98893.03;1664394;86;21182;-66
2022/12/10 12:24:20;;;;;;;25.72;16.17;;;;;;;3.94;100.00;98897.09;1631728;87;21050;-66
2022/12/10 12:26:53;;;;;;;22.90;14.98;;;;;;;3.93;100.00;98901.05;1716679;83;21275;-66
2022/12/10 12:29:34;;;;;;;28.85;17.05;;;;;;;4.02;100.00;98896.86;1696477;84;21036;-65
2022/12/10 12:32:27;;;;;;;26.12;16.57;;;;;;;4.21;100.00;98898.48;1703816;83;21033;-66
2022/12/10 12:35:03;;;;;;;36.73;16.80;;;;;;;3.99;100.00;98909.53;1713100;83;21045;-66
2022/12/10 12:37:54;;;;;;;30.02;17.65;;;;;;;4.30;100.00;98902.11;1724155;82;21046;-66
2022/12/10 12:40:26;;;;;;;31.87;18.70;;;;;;;4.24;100.00;98897.07;1712454;83;21762;-66
2022/12/10 12:43:06;;;;;;;29.25;16.87;;;;;;;4.18;100.00;98899.86;1698571;83;21147;-67
2022/12/10 12:45:38;;;;;;;38.67;23.10;;;;;;;4.34;100.00;98897.63;1705156;83;21113;-65
2022/12/10 12:48:29;;;;;;;46.30;24.10;;;;;;;4.23;100.00;98900.56;1709917;83;21054;-66
2022/12/10 12:51:22;;;;;;;29.05;17.12;;;;;;;4.24;100.00;98897.07;1703469;83;21017;-65
2022/12/10 12:53:50;;;;;;;31.27;18.48;;;;;;;4.37;100.00;98901.01;1707340;83;21863;-65
2022/12/10 12:56:43;;;;;;;36.55;19.17;;;;;;;4.14;100.00;98901.72;1709872;83;21013;-65
2022/12/10 12:59:21;;;;;;;27.32;16.10;;;;;;;4.20;100.00;98896.75;1712252;83;21097;-66
2022/12/10 13:01:58;;;;;;;46.48;20.72;;;;;;;4.18;100.00;98893.34;1713070;83;21077;-66
2022/12/10 13:04:25;;;;;;;37.75;20.10;;;;;;;4.46;100.00;98892.02;1702863;82;21053;-65
2022/12/10 13:07:22;;;;;;;34.53;19.98;;;;;;;4.37;100.00;98889.28;1711660;83;21849;-66
2022/12/10 13:10:10;;;;;;;37.28;21.52;;;;;;;4.41;100.00;98898.69;1709616;83;21109;-66
2022/12/10 13:13:09;;;;;;;40.95;22.37;;;;;;;4.48;100.00;98888.07;1709857;82;21054;-66
2022/12/10 13:15:37;;;;;;;54.35;27.00;;;;;;;4.48;100.00;98898.50;1712684;82;21738;-67
2022/12/10 13:18:18;;;;;;;47.98;23.40;;;;;;;4.45;100.00;98895.55;1704835;82;21165;-67
2022/12/10 13:20:48;;;;;;;53.50;28.02;;;;;;;4.71;100.00;98897.75;1707314;83;21165;-66
2022/12/10 13:23:31;;;;;;;313.57;101.67;;;;;;;4.62;100.00;98902.81;1704945;83;21023;-67
2022/12/10 13:25:59;;;;;;;491.10;144.85;;;;;;;4.62;100.00;98904.11;1701556;83;21546;-66
2022/12/10 13:28:37;;;;;;;350.35;103.15;;;;;;;4.30;100.00;98907.32;1703643;83;21121;-67
2022/12/10 13:31:19;;;;;;;489.73;154.42;;;;;;;4.31;100.00;98910.31;1705716;83;21015;-67
2022/12/10 13:37:19;;;;;;;195.87;74.17;;;;;;;4.28;100.00;98905.63;1642156;82;21575;-68
2022/12/10 13:39:55;;;;;;;129.93;52.37;;;;;;;4.33;100.00;98903.30;1621874;86;21096;-70
2022/12/10 13:45:27;;;;;;;109.00;50.85;;;;;;;4.47;100.00;98912.45;1620352;88;21102;-69
2022/12/10 13:48:16;;;;;;;76.28;42.38;;;;;;;4.56;100.00;98914.30;1616485;88;21121;-69
2022/12/10 13:50:50;;;;;;;44.65;24.43;;;;;;;4.56;100.00;98909.55;1631109;87;21096;-69
2022/12/10 13:53:26;;;;;;;48.00;24.77;;;;;;;4.81;100.00;98907.84;1628470;88;21059;-68
2022/12/10 13:56:26;;;;;;;53.38;26.40;;;;;;;4.66;100.00;98900.52;1629910;87;21139;-67
2022/12/10 19:09:39;;;;;;;222.23;81.47;;;;;;;0.53;100.00;98950.22;1811967;76;26796;-93
2022/12/10 19:12:06;;;;;;;158.90;66.07;;;;;;;0.91;100.00;98955.22;1752693;78;87018;-67
2022/12/10 19:14:32;;;;;;;143.95;59.08;;;;;;;1.23;100.00;98956.41;1568414;90;21121;-67
2022/12/10 19:17:00;;;;;;;111.88;50.10;;;;;;;1.42;100.00;98957.77;1570772;90;21056;-66
2022/12/10 19:19:27;;;;;;;158.65;65.52;;;;;;;1.60;100.00;98958.31;1567678;90;21076;-66
2022/12/10 19:21:57;;;;;;;127.95;59.65;;;;;;;1.78;100.00;98969.63;1595560;87;21137;-66
2022/12/10 19:24:23;;;;;;;163.72;71.22;;;;;;;2.06;100.00;98964.72;1594411;88;21134;-67
2022/12/10 19:26:50;;;;;;;154.18;70.57;;;;;;;2.13;100.00;98952.45;1579184;89;22076;-67
2022/12/10 19:29:24;;;;;;;193.05;80.25;;;;;;;2.26;100.00;98960.40;1604264;88;21135;-67
2022/12/10 19:31:51;;;;;;;178.38;79.00;;;;;;;2.65;100.00;98953.88;1603000;88;21126;-67
2022/12/10 19:34:20;;;;;;;184.60;77.60;;;;;;;2.96;100.00;98950.53;1603085;88;21602;-66
2022/12/10 19:36:52;;;;;;;154.63;63.38;;;;;;;3.02;100.00;98956.04;1603207;89;21110;-66
2022/12/10 19:39:22;;;;;;;190.70;79.47;;;;;;;3.01;100.00;98955.61;1604273;89;21150;-67
2022/12/10 19:41:50;;;;;;;206.40;83.50;;;;;;;2.95;100.00;98955.34;1596527;89;21107;-66
2022/12/10 19:44:17;;;;;;;201.22;87.20;;;;;;;3.00;100.00;98956.52;1593690;88;21099;-66
2022/12/10 19:46:44;;;;;;;193.13;81.30;;;;;;;2.79;100.00;98956.61;1595561;89;21587;-66
2022/12/10 19:49:12;;;;;;;171.28;72.62;;;;;;;2.84;100.00;98949.55;1598929;89;21598;-66
2022/12/10 19:51:39;;;;;;;199.70;81.10;;;;;;;3.00;100.00;98946.97;1605580;89;21722;-67
2022/12/10 19:54:06;;;;;;;223.55;91.97;;;;;;;3.02;100.00;98945.19;1602512;88;21139;-67
2022/12/10 19:56:34;;;;;;;192.35;79.67;;;;;;;3.09;100.00;98948.03;1583227;89;21053;-66
2022/12/10 19:59:04;;;;;;;166.57;70.12;;;;;;;3.09;100.00;98949.33;1597990;89;21156;-67
2022/12/10 20:01:51;;;;;;;243.57;98.25;;;;;;;3.32;100.00;98949.19;1598866;88;21295;-66
2022/12/10 20:04:19;;;;;;;226.82;94.37;;;;;;;3.39;100.00;98950.73;1655496;86;21247;-67
2022/12/10 20:06:48;;;;;;;184.80;78.07;;;;;;;3.12;100.00;98962.25;1667839;85;21096;-66
2022/12/10 20:09:26;;;;;;;183.72;80.95;;;;;;;3.28;100.00;98959.27;1680416;84;21132;-66
2022/12/10 20:11:53;;;;;;;157.07;67.03;;;;;;;3.23;100.00;98967.64;1654028;86;21091;-66
2022/12/10 20:14:20;;;;;;;111.45;50.15;;;;;;;3.24;100.00;98964.98;1655475;86;21790;-66
2022/12/10 20:16:50;;;;;;;138.22;62.25;;;;;;;3.07;100.00;98978.88;1649524;86;21067;-66
2022/12/10 20:19:20;;;;;;;153.25;64.55;;;;;;;3.07;100.00;98978.42;1649016;86;21609;-67
2022/12/10 20:21:47;;;;;;;121.70;53.42;;;;;;;3.06;100.00;98985.84;1648785;86;21178;-66
2022/12/10 20:24:14;;;;;;;165.07;69.32;;;;;;;3.13;100.00;98986.09;1618970;87;21134;-66
2022/12/10 20:26:44;;;;;;;166.40;71.57;;;;;;;3.22;100.00;98981.53;1614194;87;21046;-66
2022/12/10 20:29:15;;;;;;;192.22;80.60;;;;;;;3.26;100.00;98975.36;1617988;87;21818;-66
2022/12/10 20:31:42;;;;;;;215.50;86.95;;;;;;;3.35;100.00;98979.02;1618685;87;21044;-66
2022/12/10 20:34:10;;;;;;;155.40;66.62;;;;;;;3.51;100.00;98979.02;1619121;87;21066;-66
2022/12/10 20:36:38;;;;;;;182.87;78.37;;;;;;;3.29;100.00;98983.08;1618743;87;21415;-66
2022/12/10 20:39:07;;;;;;;156.70;65.17;;;;;;;3.26;100.00;98985.77;1619152;87;21598;-64
2022/12/10 20:41:35;;;;;;;153.62;64.62;;;;;;;3.20;100.00;98991.12;1621296;88;21223;-66
2022/12/10 20:44:02;;;;;;;162.07;66.10;;;;;;;3.30;100.00;98988.70;1616328;87;21031;-66
2022/12/10 20:46:33;;;;;;;140.85;54.05;;;;;;;3.12;100.00;98993.47;1618500;87;21133;-66
2022/12/10 20:49:00;;;;;;;99.37;43.20;;;;;;;3.05;100.00;98979.36;1620616;87;21098;-65
2022/12/10 20:51:28;;;;;;;126.20;52.38;;;;;;;3.01;100.00;98981.17;1620496;87;21150;-66
2022/12/10 20:53:54;;;;;;;145.22;58.02;;;;;;;3.14;100.00;99004.70;1620953;87;21188;-66
2022/12/10 20:56:24;;;;;;;140.45;60.20;;;;;;;3.24;100.00;99006.61;1620681;87;21643;-66
2022/12/10 20:58:51;;;;;;;174.55;67.87;;;;;;;3.12;100.00;99009.08;1620511;87;21206;-66
2022/12/10 21:01:18;;;;;;;214.25;89.20;;;;;;;3.13;100.00;98999.09;1618486;87;21593;-66
2022/12/10 21:03:45;;;;;;;268.00;88.58;;;;;;;3.22;100.00;99005.83;1622067;87;21079;-66
2022/12/10 21:06:21;;;;;;;372.75;110.85;;;;;;;3.22;100.00;99003.22;1620060;87;21811;-67
2022/12/10 21:08:49;;;;;;;340.43;109.87;;;;;;;3.25;100.00;98997.08;1619605;87;21120;-67
2022/12/10 21:11:17;;;;;;;319.52;104.63;;;;;;;3.24;100.00;98987.55;1622371;87;21649;-67
2022/12/10 21:13:44;;;;;;;236.87;85.57;;;;;;;3.19;100.00;98982.92;1622064;87;21055;-67
2022/12/10 21:16:15;;;;;;;255.05;98.50;;;;;;;3.36;100.00;98979.45;1623674;87;21685;-66
2022/12/10 21:18:42;;;;;;;238.90;90.32;;;;;;;3.40;100.00;98975.84;1620792;87;21601;-66
2022/12/10 21:21:12;;;;;;;245.63;94.10;;;;;;;3.35;100.00;98975.13;1619532;87;21111;-67
2022/12/10 21:23:39;;;;;;;248.28;100.25;;;;;;;3.21;100.00;98977.23;1595532;86;21590;-67
2022/12/10 21:26:08;;;;;;;272.52;100.90;;;;;;;2.99;100.00;98982.11;1616286;87;21061;-66
2022/12/10 21:28:35;;;;;;;236.52;95.00;;;;;;;3.03;100.00;98977.24;1607317;87;21094;-67
2022/12/10 21:31:02;;;;;;;240.47;97.17;;;;;;;3.05;100.00;98988.02;1607233;87;21224;-67
2022/12/10 21:33:31;;;;;;;193.30;79.55;;;;;;;3.09;100.00;98997.45;1598864;87;21133;-66
2022/12/10 21:35:58;;;;;;;197.62;79.53;;;;;;;3.11;100.00;99006.08;1569054;87;21123;-66
2022/12/10 21:38:27;;;;;;;110.12;50.60;;;;;;;3.10;100.00;99001.75;1601741;87;21146;-66
2022/12/10 21:40:54;;;;;;;198.95;84.67;;;;;;;3.24;100.00;99003.16;1609900;87;21166;-66
2022/12/10 21:43:25;;;;;;;220.15;88.17;;;;;;;3.33;100.00;98996.42;1587733;88;21186;-66
2022/12/10 21:45:53;;;;;;;267.00;90.60;;;;;;;3.33;100.00;98983.41;1589223;89;21130;-67
2022/12/10 21:48:23;;;;;;;320.42;99.47;;;;;;;3.19;100.00;98984.22;1598021;87;21533;-66
2022/12/10 21:50:58;;;;;;;164.10;64.87;;;;;;;3.12;100.00;98973.95;1607300;86;21069;-66
2022/12/10 21:53:25;;;;;;;119.93;51.25;;;;;;;2.93;100.00;98971.42;1647666;86;21581;-67
2022/12/10 21:55:55;;;;;;;161.28;61.30;;;;;;;3.14;100.00;98996.89;1621758;86;21168;-66
2022/12/10 21:58:22;;;;;;;178.18;67.65;;;;;;;3.06;100.00;98998.84;1645240;86;21039;-67
2022/12/10 22:00:56;;;;;;;175.45;69.20;;;;;;;3.17;100.00;98992.51;1647784;86;21045;-66
2022/12/10 22:03:23;;;;;;;121.55;54.38;;;;;;;3.14;100.00;99008.59;1648889;86;21741;-65
2022/12/10 22:05:50;;;;;;;107.37;47.38;;;;;;;3.16;100.00;99003.37;1648273;86;21170;-67
2022/12/10 22:08:18;;;;;;;251.02;89.62;;;;;;;3.14;100.00;99000.79;1648216;86;21101;-67
2022/12/10 22:10:45;;;;;;;235.05;87.33;;;;;;;2.98;100.00;99001.22;1648945;85;21549;-65
2022/12/10 22:13:12;;;;;;;141.10;59.15;;;;;;;3.06;100.00;98996.24;1648268;85;21031;-66
2022/12/10 22:15:40;;;;;;;226.62;82.92;;;;;;;3.03;100.00;98988.50;1647550;86;21808;-65
2022/12/10 22:18:08;;;;;;;207.92;81.67;;;;;;;3.26;100.00;98980.56;1649456;86;21427;-65
2022/12/10 22:20:36;;;;;;;274.18;100.07;;;;;;;3.21;100.00;98981.14;1648567;85;22132;-66
2022/12/10 22:23:05;;;;;;;477.40;156.25;;;;;;;3.25;100.00;98971.06;1649597;87;21078;-66
2022/12/10 22:25:32;;;;;;;225.90;85.70;;;;;;;3.34;100.00;98968.22;1649021;86;21243;-66
2022/12/10 22:27:59;;;;;;;315.70;121.17;;;;;;;3.18;100.00;98970.81;1649111;86;21133;-66
2022/12/10 22:30:27;;;;;;;305.37;116.37;;;;;;;3.26;100.00;98968.41;1649159;86;21121;-66
2022/12/10 22:32:54;;;;;;;231.00;91.30;;;;;;;3.11;100.00;98976.16;1618765;87;21115;-64
2022/12/10 22:35:21;;;;;;;292.82;108.80;;;;;;;3.36;100.00;98985.95;1620854;88;21132;-67
2022/12/10 22:37:52;;;;;;;182.00;75.10;;;;;;;3.33;100.00;98982.11;1620441;87;21098;-66
2022/12/10 22:40:20;;;;;;;179.45;74.22;;;;;;;3.08;100.00;98981.45;1619991;87;21087;-66
2022/12/10 22:42:47;;;;;;;234.00;91.32;;;;;;;3.02;100.00;98977.70;1620598;88;21102;-65
2022/12/10 22:45:13;;;;;;;141.90;60.28;;;;;;;3.19;100.00;98979.02;1618978;87;21195;-65
2022/12/10 22:47:40;;;;;;;222.45;86.55;;;;;;;3.20;100.00;98993.72;1619651;87;21579;-65
2022/12/10 22:50:08;;;;;;;215.10;82.65;;;;;;;3.27;100.00;98990.95;1618710;87;21177;-65
2022/12/10 22:52:36;;;;;;;180.45;69.87;;;;;;;3.11;100.00;98985.27;1619713;87;21068;-66
2022/12/10 22:55:03;;;;;;;216.93;80.83;;;;;;;3.06;100.00;98993.64;1620092;87;21118;-67
2022/12/10 22:57:31;;;;;;;285.15;104.60;;;;;;;3.05;100.00;98992.37;1618774;87;21259;-67
2022/12/10 22:59:58;;;;;;;299.70;105.40;;;;;;;2.98;100.00;98992.96;1618890;87;21522;-66
2022/12/10 23:02:25;;;;;;;254.28;93.10;;;;;;;3.04;100.00;98985.47;1620970;87;21075;-67
2022/12/10 23:04:52;;;;;;;230.98;85.50;;;;;;;2.92;100.00;98986.59;1619161;87;21062;-66
2022/12/10 23:07:18;;;;;;;223.68;85.45;;;;;;;2.73;100.00;98979.23;1619865;87;21970;-67
2022/12/10 23:09:46;;;;;;;236.55;85.55;;;;;;;2.88;100.00;98979.78;1620147;87;21894;-67
2022/12/10 23:15:00;;;;;;;281.02;96.67;;;;;;;2.79;100.00;98967.01;1616300;87;21058;-66
2022/12/10 23:17:27;;;;;;;229.07;87.08;;;;;;;2.71;100.00;98967.17;1618889;87;21115;-66
2022/12/10 23:19:53;;;;;;;259.95;90.57;;;;;;;2.86;100.00;98965.97;1619303;87;21768;-66
2022/12/10 23:22:20;;;;;;;225.50;85.20;;;;;;;3.04;100.00;98960.31;1621868;88;21409;-66
2022/12/10 23:24:47;;;;;;;195.35;73.52;;;;;;;3.17;100.00;98959.98;1591003;87;21680;-66
2022/12/10 23:27:13;;;;;;;211.45;79.07;;;;;;;3.09;100.00;98953.23;1592474;89;21237;-65
2022/12/10 23:29:40;;;;;;;149.25;61.25;;;;;;;3.14;100.00;98968.73;1596242;89;21153;-67
2022/12/10 23:32:07;;;;;;;209.32;78.40;;;;;;;3.23;100.00;98979.35;1594566;89;21126;-67
2022/12/10 23:34:35;;;;;;;193.40;73.55;;;;;;;3.19;100.00;98974.66;1613506;87;21684;-66
2022/12/10 23:37:02;;;;;;;174.45;66.45;;;;;;;3.18;100.00;98972.97;1598831;87;21134;-66
2022/12/10 23:39:28;;;;;;;200.32;70.52;;;;;;;3.09;100.00;98976.64;1595257;86;21070;-67
2022/12/10 23:41:54;;;;;;;166.35;67.87;;;;;;;2.98;100.00;98970.85;1593741;87;21695;-66
2022/12/10 23:44:23;;;;;;;235.75;81.20;;;;;;;2.92;100.00;98978.80;1611092;87;21115;-66
2022/12/10 23:46:49;;;;;;;241.80;81.50;;;;;;;3.07;100.00;98964.58;1613266;87;21313;-65
2022/12/10 23:49:16;;;;;;;200.13;76.02;;;;;;;3.18;100.00;98959.11;1598321;87;22861;-66
2022/12/10 23:51:43;;;;;;;225.68;83.03;;;;;;;3.23;100.00;98944.23;1601533;87;21174;-65
2022/12/10 23:54:10;;;;;;;164.90;67.03;;;;;;;3.00;100.00;98944.36;1595321;87;21130;-65
2022/12/10 23:56:36;;;;;;;158.25;65.37;;;;;;;3.06;100.00;98942.04;1601444;87;21049;-65
2022/12/10 23:59:03;;;;;;;150.95;63.28;;;;;;;3.08;100.00;98956.74;1625225;88;21117;-66
